createdAt,value
2023-04-26T00:00:20.173Z,92.80
2023-04-26T00:03:18.293Z,92.60
2023-04-26T00:06:16.939Z,92.60
2023-04-26T00:09:15.188Z,92.60
2023-04-26T00:12:13.001Z,92.70
2023-04-26T00:15:11.853Z,92.90
2023-04-26T00:18:09.663Z,93.00
2023-04-26T00:21:07.733Z,92.80
2023-04-26T00:24:06.454Z,92.80
2023-04-26T00:27:09.747Z,92.60
2023-04-26T00:30:07.624Z,92.50
2023-04-26T00:33:05.682Z,92.50
2023-04-26T00:36:03.706Z,92.50
2023-04-26T00:39:01.794Z,92.50
2023-04-26T00:41:59.901Z,92.40
2023-04-26T00:44:58.305Z,92.40
2023-04-26T00:47:56.765Z,92.10
2023-04-26T00:50:54.880Z,92.10
2023-04-26T00:53:53.044Z,91.60
2023-04-26T00:56:53.773Z,91.50
2023-04-26T00:59:51.994Z,90.90
2023-04-26T01:02:50.247Z,91.20
2023-04-26T01:05:48.878Z,91.30
2023-04-26T01:08:47.612Z,91.10
2023-04-26T01:11:46.091Z,90.80
2023-04-26T01:14:44.823Z,90.20
2023-04-26T01:17:45.042Z,90.10
2023-04-26T01:20:43.774Z,90.20
2023-04-26T01:23:41.682Z,89.20
2023-04-26T01:26:46.131Z,89.00
2023-04-26T01:29:44.376Z,88.10
2023-04-26T01:32:42.456Z,88.10
2023-04-26T01:35:40.417Z,87.20
2023-04-26T01:38:38.679Z,87.00
2023-04-26T01:41:37.208Z,87.30
2023-04-26T01:44:35.136Z,87.30
2023-04-26T01:47:32.952Z,86.20
2023-04-26T01:50:30.862Z,86.70
2023-04-26T01:53:28.692Z,86.50
2023-04-26T01:56:27.027Z,85.80
2023-04-26T01:59:25.019Z,85.90
2023-04-26T02:02:23.119Z,85.60
2023-04-26T02:05:21.057Z,84.90
2023-04-26T02:08:19.259Z,84.90
2023-04-26T02:11:17.160Z,84.60
2023-04-26T02:14:16.297Z,85.50
2023-04-26T02:17:15.228Z,85.90
2023-04-26T02:20:13.594Z,85.30
2023-04-26T02:23:12.223Z,84.80
2023-04-26T02:26:10.168Z,85.80
2023-04-26T02:29:08.065Z,84.80
2023-04-26T02:32:06.433Z,85.30
2023-04-26T02:35:05.744Z,84.40
2023-04-26T02:38:04.175Z,84.40
2023-04-26T02:41:03.187Z,83.80
2023-04-26T02:44:01.085Z,85.10
2023-04-26T02:46:59.251Z,83.50
2023-04-26T02:49:57.631Z,83.60
2023-04-26T02:52:55.434Z,82.40
2023-04-26T02:55:53.325Z,83.00
2023-04-26T02:58:51.559Z,82.60
2023-04-26T03:01:49.717Z,81.90
2023-04-26T03:04:47.891Z,82.40
2023-04-26T03:07:45.815Z,82.60
2023-04-26T03:10:46.523Z,82.50
2023-04-26T03:13:44.590Z,83.20
2023-04-26T03:16:43.800Z,82.60
2023-04-26T03:19:41.701Z,82.80
2023-04-26T03:22:39.806Z,82.10
2023-04-26T03:25:38.042Z,81.10
2023-04-26T03:28:36.292Z,82.40
2023-04-26T03:31:34.303Z,81.60
2023-04-26T03:34:32.246Z,82.50
2023-04-26T03:37:30.257Z,81.10
2023-04-26T03:40:28.032Z,80.00
2023-04-26T03:43:25.936Z,79.20
2023-04-26T03:46:23.829Z,79.20
2023-04-26T03:49:21.791Z,79.00
2023-04-26T03:52:20.622Z,79.80
2023-04-26T03:55:18.659Z,79.10
2023-04-26T03:58:16.433Z,78.90
2023-04-26T04:01:14.461Z,79.60
2023-04-26T04:04:12.535Z,79.40
2023-04-26T04:07:10.798Z,80.20
2023-04-26T04:10:10.606Z,79.80
2023-04-26T04:13:08.618Z,78.10
2023-04-26T04:16:07.536Z,79.80
2023-04-26T04:19:08.242Z,78.80
2023-04-26T04:22:06.319Z,78.70
2023-04-26T04:25:06.583Z,79.30
2023-04-26T04:28:04.720Z,80.00
2023-04-26T04:31:02.704Z,78.00
2023-04-26T04:34:00.487Z,78.60
2023-04-26T04:36:58.464Z,78.00
2023-04-26T04:39:57.774Z,79.20
2023-04-26T04:42:56.117Z,77.50
2023-04-26T04:45:54.446Z,77.60
2023-04-26T04:48:52.805Z,76.60
2023-04-26T04:51:51.017Z,78.50
2023-04-26T04:54:49.473Z,77.60
2023-04-26T04:57:47.288Z,75.60
2023-04-26T05:00:46.379Z,76.40
2023-04-26T05:03:44.341Z,75.20
2023-04-26T05:06:42.541Z,75.40
2023-04-26T05:09:40.312Z,74.70
2023-04-26T05:12:38.823Z,74.80
2023-04-26T05:15:39.756Z,74.20
2023-04-26T05:18:37.725Z,73.50
2023-04-26T05:21:35.569Z,73.40
2023-04-26T05:24:33.753Z,73.60
2023-04-26T05:27:31.656Z,72.80
2023-04-26T05:30:29.635Z,71.40
2023-04-26T05:33:28.529Z,71.00
2023-04-26T05:36:29.629Z,71.30
2023-04-26T05:39:27.777Z,72.70
2023-04-26T05:42:25.728Z,71.70
2023-04-26T05:45:23.562Z,70.10
2023-04-26T05:48:23.928Z,72.70
2023-04-26T05:51:22.201Z,71.70
2023-04-26T05:54:20.136Z,70.80
2023-04-26T05:57:19.515Z,70.50
2023-04-26T06:00:20.065Z,68.70
2023-04-26T06:03:18.066Z,68.40
2023-04-26T06:06:16.547Z,68.80
2023-04-26T06:09:14.402Z,69.20
2023-04-26T06:12:12.948Z,67.60
2023-04-26T06:15:11.544Z,67.80
2023-04-26T06:18:09.536Z,67.40
2023-04-26T06:21:07.792Z,67.20
2023-04-26T06:24:06.034Z,67.80
2023-04-26T06:27:03.901Z,67.30
2023-04-26T06:30:01.885Z,66.30
2023-04-26T06:33:00.751Z,67.70
2023-04-26T06:35:58.725Z,66.70
2023-04-26T06:38:56.507Z,67.90
2023-04-26T06:41:54.644Z,67.30
2023-04-26T06:44:52.447Z,66.70
2023-04-26T06:47:53.756Z,66.10
2023-04-26T06:50:51.629Z,65.50
2023-04-26T06:53:50.449Z,66.40
2023-04-26T06:56:48.397Z,65.50
2023-04-26T06:59:46.308Z,66.30
2023-04-26T07:02:44.229Z,65.30
2023-04-26T07:05:42.349Z,65.20
2023-04-26T07:08:40.101Z,64.60
2023-04-26T07:11:37.982Z,66.00
2023-04-26T07:14:39.623Z,65.30
2023-04-26T07:17:37.554Z,65.60
2023-04-26T07:20:35.398Z,65.20
2023-04-26T07:23:33.648Z,65.30
2023-04-26T07:26:32.010Z,65.40
2023-04-26T07:29:29.888Z,65.10
2023-04-26T07:32:27.893Z,65.10
2023-04-26T07:35:26.499Z,64.60
2023-04-26T07:38:24.883Z,65.20
2023-04-26T07:41:22.844Z,64.80
2023-04-26T07:44:20.593Z,64.40
2023-04-26T07:47:18.513Z,65.10
2023-04-26T07:50:16.388Z,64.20
2023-04-26T07:53:14.309Z,62.60
2023-04-26T07:56:12.155Z,62.90
2023-04-26T07:59:10.036Z,64.20
2023-04-26T08:02:07.901Z,62.00
2023-04-26T08:05:08.383Z,62.70
2023-04-26T08:08:06.363Z,61.90
2023-04-26T08:11:08.693Z,61.40
2023-04-26T08:14:06.451Z,61.60
2023-04-26T08:17:04.379Z,62.20
2023-04-26T08:20:02.269Z,62.00
2023-04-26T08:23:00.816Z,61.20
2023-04-26T08:25:58.627Z,62.40
2023-04-26T08:28:57.894Z,61.60
2023-04-26T08:31:55.990Z,61.10
2023-04-26T08:34:53.885Z,60.70
2023-04-26T08:37:52.760Z,61.20
2023-04-26T08:40:52.206Z,60.10
2023-04-26T08:43:51.017Z,61.50
2023-04-26T08:47:14.160Z,60.40
2023-04-26T08:50:15.100Z,60.30
2023-04-26T08:53:17.512Z,60.60
2023-04-26T08:56:15.577Z,59.10
2023-04-26T08:59:15.144Z,58.10
2023-04-26T09:02:18.368Z,58.50
2023-04-26T09:05:16.474Z,58.20
2023-04-26T09:08:18.160Z,59.40
2023-04-26T09:11:16.105Z,58.30
2023-04-26T09:14:13.937Z,59.20
2023-04-26T09:17:37.238Z,58.10
2023-04-26T09:20:35.085Z,57.50
2023-04-26T09:23:33.648Z,56.70
2023-04-26T09:26:31.720Z,56.50
2023-04-26T09:29:29.592Z,56.50
2023-04-26T09:32:28.157Z,56.20
2023-04-26T09:35:30.048Z,56.20
2023-04-26T09:38:29.368Z,56.00
2023-04-26T09:41:44.625Z,55.50
2023-04-26T09:44:42.473Z,55.70
2023-04-26T09:47:40.526Z,57.00
2023-04-26T09:50:38.385Z,56.10
2023-04-26T09:53:39.176Z,54.30
2023-04-26T09:56:37.068Z,54.80
2023-04-26T09:59:44.142Z,56.10
2023-04-26T10:02:42.382Z,53.90
2023-04-26T10:05:40.602Z,54.20
2023-04-26T10:08:38.431Z,55.70
2023-04-26T10:11:38.886Z,54.30
2023-04-26T10:14:37.554Z,54.10
2023-04-26T10:17:35.454Z,54.20
2023-04-26T10:20:33.978Z,55.20
2023-04-26T10:23:33.824Z,53.60
2023-04-26T10:26:57.739Z,54.60
2023-04-26T10:30:10.799Z,52.90
2023-04-26T10:33:14.493Z,53.40
2023-04-26T10:36:14.395Z,53.10
2023-04-26T10:39:22.661Z,53.10
2023-04-26T10:42:26.983Z,52.30
2023-04-26T10:45:28.373Z,52.70
2023-04-26T10:48:32.505Z,53.10
2023-04-26T10:51:30.293Z,53.20
2023-04-26T10:54:51.360Z,52.80
2023-04-26T10:57:52.857Z,52.60
2023-04-26T11:01:07.761Z,51.90
2023-04-26T11:04:10.742Z,52.70
2023-04-26T11:07:08.366Z,52.70
2023-04-26T11:10:11.046Z,51.40
2023-04-26T11:13:09.218Z,51.20
2023-04-26T11:16:09.079Z,51.90
2023-04-26T11:19:07.259Z,51.40
2023-04-26T11:22:08.020Z,51.80
2023-04-26T11:25:06.451Z,52.40
2023-04-26T11:28:04.589Z,51.40
2023-04-26T11:31:04.738Z,51.40
2023-04-26T11:34:05.750Z,51.60
2023-04-26T11:37:05.350Z,51.10
2023-04-26T11:40:06.513Z,50.80
2023-04-26T11:43:06.659Z,50.60
2023-04-26T11:46:06.288Z,50.60
2023-04-26T11:49:04.311Z,51.30
2023-04-26T11:52:02.930Z,50.00
2023-04-26T11:55:05.207Z,50.10
2023-04-26T11:58:11.561Z,50.20
2023-04-26T12:01:09.494Z,50.00
2023-04-26T12:04:11.158Z,50.40
2023-04-26T12:07:10.016Z,50.20
2023-04-26T12:10:26.394Z,50.40
2023-04-26T12:13:26.385Z,50.30
2023-04-26T12:16:26.745Z,50.20
2023-04-26T12:19:25.409Z,50.20
2023-04-26T12:22:23.220Z,50.80
2023-04-26T12:25:21.147Z,50.90
2023-04-26T12:28:18.937Z,50.60
2023-04-26T12:31:16.873Z,50.90
2023-04-26T12:34:14.804Z,51.00
2023-04-26T12:37:12.684Z,51.30
2023-04-26T12:40:11.344Z,51.30
2023-04-26T12:43:09.572Z,51.70
2023-04-26T12:46:07.393Z,52.80
2023-04-26T12:49:05.772Z,51.60
2023-04-26T12:52:04.102Z,51.40
2023-04-26T12:55:02.122Z,51.50
2023-04-26T12:58:00.049Z,51.00
2023-04-26T13:00:58.088Z,51.60
2023-04-26T13:03:57.131Z,51.40
2023-04-26T13:06:55.486Z,51.10
2023-04-26T13:09:53.413Z,51.20
2023-04-26T13:12:51.382Z,51.00
2023-04-26T13:15:49.289Z,50.20
2023-04-26T13:18:47.319Z,49.70
2023-04-26T13:21:45.118Z,50.20
2023-04-26T13:24:43.033Z,50.60
2023-04-26T13:27:40.836Z,51.00
2023-04-26T13:30:38.723Z,51.00
2023-04-26T13:33:36.668Z,51.50
2023-04-26T13:36:35.012Z,52.00
2023-04-26T13:39:32.910Z,52.20
2023-04-26T13:42:30.877Z,52.70
2023-04-26T13:45:28.732Z,53.60
2023-04-26T13:48:26.824Z,53.70
2023-04-26T13:51:27.469Z,54.40
2023-04-26T13:54:26.738Z,54.70
2023-04-26T13:57:24.497Z,55.20
2023-04-26T14:00:23.364Z,55.50
2023-04-26T14:03:21.355Z,55.80
2023-04-26T14:06:19.339Z,56.50
2023-04-26T14:09:17.994Z,56.40
2023-04-26T14:12:15.936Z,56.50
2023-04-26T14:15:13.778Z,57.50
2023-04-26T14:18:11.938Z,60.30
2023-04-26T14:21:09.730Z,61.10
2023-04-26T14:24:07.959Z,61.30
2023-04-26T14:27:05.728Z,62.00
2023-04-26T14:30:03.679Z,62.40
2023-04-26T14:33:01.859Z,62.80
2023-04-26T14:36:00.339Z,63.60
2023-04-26T14:38:58.137Z,63.80
2023-04-26T14:41:57.454Z,64.90
2023-04-26T14:44:55.495Z,66.40
2023-04-26T14:47:53.500Z,67.00
2023-04-26T14:50:58.398Z,67.90
2023-04-26T14:53:56.433Z,68.10
2023-04-26T14:56:55.029Z,68.50
2023-04-26T14:59:52.962Z,68.80
2023-04-26T15:02:50.844Z,69.30
2023-04-26T15:05:48.832Z,69.60
2023-04-26T15:08:46.788Z,70.30
2023-04-26T15:11:44.701Z,70.70
2023-04-26T15:14:42.535Z,71.10
2023-04-26T15:17:40.438Z,71.70
2023-04-26T15:20:41.996Z,72.10
2023-04-26T15:23:39.981Z,72.80
2023-04-26T15:26:38.211Z,73.00
2023-04-26T15:29:36.626Z,73.10
2023-04-26T15:32:34.390Z,73.50
2023-04-26T15:35:32.348Z,74.10
2023-04-26T15:38:30.135Z,74.40
2023-04-26T15:41:28.129Z,74.70
2023-04-26T15:44:26.015Z,74.90
2023-04-26T15:47:23.968Z,74.90
2023-04-26T15:50:21.940Z,75.20
2023-04-26T15:53:20.434Z,75.00
2023-04-26T15:56:18.751Z,75.00
2023-04-26T15:59:17.913Z,75.10
2023-04-26T16:02:15.984Z,75.10
2023-04-26T16:05:14.189Z,75.10
2023-04-26T16:08:12.040Z,75.00
2023-04-26T16:11:10.219Z,75.30
2023-04-26T16:14:08.036Z,75.80
2023-04-26T16:17:06.033Z,76.30
2023-04-26T16:20:07.160Z,76.50
2023-04-26T16:23:05.226Z,76.30
2023-04-26T16:26:03.842Z,77.10
2023-04-26T16:29:02.120Z,77.20
2023-04-26T16:32:00.220Z,77.70
2023-04-26T16:34:58.298Z,77.70
2023-04-26T16:37:56.204Z,77.90
2023-04-26T16:40:58.511Z,77.70
2023-04-26T16:43:56.672Z,77.70
2023-04-26T16:46:54.595Z,77.90
2023-04-26T16:49:52.459Z,77.90
2023-04-26T16:52:50.362Z,78.30
2023-04-26T16:55:49.184Z,78.30
2023-04-26T16:58:47.370Z,78.30
2023-04-26T17:01:45.161Z,78.10
2023-04-26T17:04:43.302Z,78.00
2023-04-26T17:07:41.293Z,78.60
2023-04-26T17:10:39.437Z,78.60
2023-04-26T17:13:38.232Z,78.70
2023-04-26T17:16:36.441Z,78.50
2023-04-26T17:19:34.306Z,78.70
2023-04-26T17:22:32.188Z,78.50
2023-04-26T17:25:30.294Z,78.70
2023-04-26T17:28:28.235Z,78.90
2023-04-26T17:31:26.055Z,79.30
2023-04-26T17:34:24.050Z,79.60
2023-04-26T17:37:21.983Z,79.70
2023-04-26T17:40:20.284Z,80.00
2023-04-26T17:43:18.316Z,80.10
2023-04-26T17:46:16.467Z,80.00
2023-04-26T17:49:14.314Z,80.00
2023-04-26T17:52:12.307Z,80.20
2023-04-26T17:55:10.390Z,80.20
2023-04-26T17:58:08.623Z,80.20
2023-04-26T18:01:06.460Z,80.30
2023-04-26T18:04:04.706Z,80.40
2023-04-26T18:07:02.645Z,80.80
2023-04-26T18:10:00.483Z,81.20
2023-04-26T18:12:58.259Z,81.20
2023-04-26T18:15:56.740Z,81.90
2023-04-26T18:18:54.558Z,82.00
2023-04-26T18:21:54.163Z,82.20
2023-04-26T18:24:51.939Z,81.70
2023-04-26T18:27:49.919Z,82.00
2023-04-26T18:30:47.836Z,82.10
2023-04-26T18:33:48.741Z,82.40
2023-04-26T18:36:46.681Z,82.50
2023-04-26T18:39:44.694Z,82.70
2023-04-26T18:42:42.630Z,82.60
2023-04-26T18:45:40.639Z,83.00
2023-04-26T18:48:38.395Z,83.30
2023-04-26T18:51:36.489Z,83.30
2023-04-26T18:54:34.734Z,83.20
2023-04-26T18:57:33.164Z,83.20
2023-04-26T19:00:31.015Z,83.40
2023-04-26T19:03:29.354Z,83.60
2023-04-26T19:06:28.674Z,83.80
2023-04-26T19:09:26.592Z,83.30
2023-04-26T19:12:25.040Z,83.40
2023-04-26T19:15:22.899Z,83.60
2023-04-26T19:18:20.676Z,83.80
2023-04-26T19:21:18.576Z,83.90
2023-04-26T19:24:16.464Z,83.90
2023-04-26T19:27:14.374Z,84.10
2023-04-26T19:30:12.720Z,83.90
2023-04-26T19:33:10.624Z,83.80
2023-04-26T19:36:11.143Z,83.70
2023-04-26T19:39:09.317Z,83.70
2023-04-26T19:42:07.121Z,83.70
2023-04-26T19:45:05.287Z,84.20
2023-04-26T19:48:03.088Z,84.20
2023-04-26T19:51:01.440Z,84.30
2023-04-26T19:53:59.215Z,84.60
2023-04-26T19:56:57.352Z,84.40
2023-04-26T19:59:55.135Z,84.60
2023-04-26T20:02:53.517Z,84.60
2023-04-26T20:05:51.651Z,84.70
2023-04-26T20:08:49.676Z,84.90
2023-04-26T20:11:48.084Z,84.80
2023-04-26T20:14:46.131Z,84.70
2023-04-26T20:17:44.645Z,85.00
2023-04-26T20:20:42.791Z,85.00
2023-04-26T20:23:40.695Z,84.80
2023-04-26T20:26:38.719Z,85.00
2023-04-26T20:29:36.678Z,85.40
2023-04-26T20:32:36.173Z,85.50
2023-04-26T20:35:34.354Z,85.80
2023-04-26T20:38:32.688Z,85.80
2023-04-26T20:41:30.677Z,86.40
2023-04-26T20:44:28.679Z,86.50
2023-04-26T20:47:26.613Z,86.30
2023-04-26T20:50:24.770Z,86.10
2023-04-26T20:53:22.710Z,86.10
2023-04-26T20:56:20.628Z,86.60
2023-04-26T20:59:18.420Z,87.10
2023-04-26T21:02:20.219Z,87.70
2023-04-26T21:05:18.098Z,87.70
2023-04-26T21:08:16.081Z,87.50
2023-04-26T21:11:14.052Z,87.30
2023-04-26T21:14:11.942Z,86.90
2023-04-26T21:17:09.702Z,87.00
2023-04-26T21:20:08.275Z,87.10
2023-04-26T21:23:06.180Z,87.40
2023-04-26T21:26:04.080Z,87.50
2023-04-26T21:29:01.958Z,87.20
2023-04-26T21:31:59.882Z,87.40
2023-04-26T21:34:57.657Z,87.20
2023-04-26T21:37:55.539Z,87.30
2023-04-26T21:40:53.544Z,86.90
2023-04-26T21:43:51.471Z,86.80
2023-04-26T21:46:49.357Z,87.00
2023-04-26T21:49:47.302Z,86.80
2023-04-26T21:52:45.071Z,86.60
2023-04-26T21:55:43.193Z,85.60
2023-04-26T21:58:42.357Z,84.80
2023-04-26T22:01:40.260Z,84.90
2023-04-26T22:04:38.023Z,84.90
2023-04-26T22:07:36.319Z,84.90
2023-04-26T22:10:34.485Z,84.80
2023-04-26T22:13:33.519Z,84.30
2023-04-26T22:16:32.432Z,84.10
2023-04-26T22:19:30.390Z,84.00
2023-04-26T22:22:28.195Z,83.70
2023-04-26T22:25:27.298Z,83.40
2023-04-26T22:28:25.132Z,83.20
2023-04-26T22:31:23.086Z,83.30
2023-04-26T22:34:21.022Z,83.50
2023-04-26T22:37:21.120Z,83.30
2023-04-26T22:40:19.306Z,83.40
2023-04-26T22:43:17.403Z,83.10
2023-04-26T22:46:15.188Z,83.20
2023-04-26T22:49:13.357Z,82.80
2023-04-26T22:52:17.326Z,82.80
2023-04-26T22:55:26.494Z,83.00
2023-04-26T22:58:24.310Z,82.80
2023-04-26T23:01:22.321Z,82.80
2023-04-26T23:04:20.152Z,83.00
2023-04-26T23:07:18.082Z,83.40
2023-04-26T23:10:15.903Z,83.80
2023-04-26T23:13:15.286Z,84.00
2023-04-26T23:16:14.991Z,84.10
2023-04-26T23:19:13.507Z,84.50
2023-04-26T23:22:11.790Z,84.40
2023-04-26T23:25:10.286Z,83.70
2023-04-26T23:28:08.244Z,83.70
2023-04-26T23:31:07.282Z,83.80
2023-04-26T23:34:05.222Z,84.30
2023-04-26T23:37:07.944Z,84.90
2023-04-26T23:40:07.207Z,85.40
2023-04-26T23:43:06.804Z,85.90
2023-04-26T23:46:04.706Z,86.20
2023-04-26T23:49:02.673Z,86.80
2023-04-26T23:52:00.462Z,87.00
2023-04-26T23:54:58.473Z,87.10
2023-04-26T23:57:56.463Z,86.90
